Time;durP1;ratioP1;P1;durP2;ratioP2;P2;SDS_P1;SDS_P2;PMS_P1;PMS_P2;Temp;Humidity;BMP_temperature;BMP_pressure;BME280_temperature;BME280_humidity;BME280_pressure;Samples;Min_cycle;Max_cycle;Signal;HPM_P1;HPM_P2
2024/01/06 00:00:34;;;;;;;50.63;27.70;;;1.20;99.90;;;;;;4979129;28;20248;-61
2024/01/06 00:03:00;;;;;;;39.37;24.70;;;1.20;99.90;;;;;;4970037;28;20445;-61
2024/01/06 00:05:26;;;;;;;42.70;23.77;;;1.20;99.90;;;;;;4978542;28;20676;-61
2024/01/06 00:07:52;;;;;;;42.50;26.53;;;1.20;99.90;;;;;;4970770;28;20174;-58
2024/01/06 00:10:18;;;;;;;41.57;25.50;;;1.10;99.90;;;;;;4974556;28;20679;-61
2024/01/06 00:12:43;;;;;;;44.90;24.93;;;1.10;99.90;;;;;;4985146;28;20300;-61
2024/01/06 00:15:10;;;;;;;56.50;27.77;;;1.20;99.90;;;;;;4981990;28;20436;-60
2024/01/06 00:17:36;;;;;;;51.43;26.30;;;1.10;99.90;;;;;;4981197;28;20421;-60
2024/01/06 00:20:02;;;;;;;42.40;25.27;;;1.10;99.90;;;;;;4978358;28;20448;-60
2024/01/06 00:22:28;;;;;;;47.03;27.37;;;1.10;99.90;;;;;;4976089;28;20557;-60
2024/01/06 00:24:53;;;;;;;45.33;25.63;;;1.10;99.90;;;;;;4976159;28;20468;-60
2024/01/06 00:27:19;;;;;;;58.27;27.63;;;1.10;99.90;;;;;;4977966;28;20173;-60
2024/01/06 00:29:44;;;;;;;48.87;27.77;;;1.10;99.90;;;;;;4975838;28;20185;-60
2024/01/06 00:32:10;;;;;;;46.83;23.93;;;1.10;99.90;;;;;;4975869;28;20165;-61
2024/01/06 00:34:36;;;;;;;48.37;23.30;;;1.10;99.90;;;;;;4982304;28;20185;-58
2024/01/06 00:37:01;;;;;;;43.90;23.90;;;1.10;99.90;;;;;;4984966;28;20181;-59
2024/01/06 00:39:27;;;;;;;41.93;22.97;;;1.10;99.90;;;;;;4975765;28;20248;-60
2024/01/06 00:41:52;;;;;;;39.90;23.50;;;1.10;99.90;;;;;;4975466;28;20249;-59
2024/01/06 00:44:18;;;;;;;48.83;22.87;;;1.10;99.90;;;;;;4976306;28;20236;-60
2024/01/06 00:46:45;;;;;;;49.23;26.27;;;1.10;99.90;;;;;;4971356;28;20189;-59
2024/01/06 00:49:10;;;;;;;43.30;22.90;;;1.00;99.90;;;;;;4974424;28;20750;-60
2024/01/06 00:51:36;;;;;;;43.40;25.40;;;1.00;99.90;;;;;;4970922;28;20416;-60
2024/01/06 00:54:01;;;;;;;34.53;21.63;;;1.00;99.90;;;;;;4972478;28;20170;-60
2024/01/06 00:56:27;;;;;;;37.97;25.37;;;1.00;99.90;;;;;;4974581;28;20201;-58
2024/01/06 00:58:53;;;;;;;40.33;23.60;;;1.00;99.90;;;;;;4973739;28;20209;-56
2024/01/06 01:01:18;;;;;;;38.30;22.33;;;1.00;99.90;;;;;;4975159;28;20526;-60
2024/01/06 01:03:44;;;;;;;49.70;23.77;;;1.00;99.90;;;;;;4969112;28;20174;-59
2024/01/06 01:06:09;;;;;;;42.23;24.43;;;1.00;99.90;;;;;;4971851;28;20241;-60
2024/01/06 01:08:35;;;;;;;45.60;24.40;;;1.00;99.90;;;;;;4973825;28;20236;-61
2024/01/06 01:11:01;;;;;;;40.60;25.73;;;1.10;99.90;;;;;;4970552;28;20173;-61
2024/01/06 01:13:26;;;;;;;43.30;23.83;;;1.00;99.90;;;;;;4972640;28;20185;-61
2024/01/06 01:15:52;;;;;;;42.33;27.10;;;1.10;99.90;;;;;;4972044;28;20196;-60
2024/01/06 01:18:17;;;;;;;43.77;25.03;;;1.10;99.90;;;;;;4972167;28;20205;-60
2024/01/06 01:20:43;;;;;;;36.27;22.13;;;1.10;99.90;;;;;;4970338;28;20543;-61
2024/01/06 01:23:09;;;;;;;38.17;24.80;;;1.10;99.90;;;;;;4975024;28;20248;-60
2024/01/06 01:25:34;;;;;;;37.30;24.77;;;1.10;99.90;;;;;;4971350;28;20212;-60
2024/01/06 01:28:00;;;;;;;43.87;23.60;;;1.10;99.90;;;;;;4972895;28;20174;-60
2024/01/06 01:30:26;;;;;;;39.53;23.20;;;1.00;99.90;;;;;;4973606;28;20181;-61
2024/01/06 01:32:52;;;;;;;36.83;22.67;;;1.00;99.90;;;;;;4980638;28;20257;-60
2024/01/06 01:35:17;;;;;;;39.27;23.10;;;1.00;99.90;;;;;;4974886;28;21013;-61
2024/01/06 01:37:43;;;;;;;41.73;23.93;;;1.00;99.90;;;;;;4976293;28;20547;-61
2024/01/06 01:40:09;;;;;;;31.67;17.67;;;1.00;99.90;;;;;;4972766;28;20663;-60
2024/01/06 01:42:34;;;;;;;40.17;24.83;;;1.00;99.90;;;;;;4971327;28;20194;-60
2024/01/06 01:45:00;;;;;;;40.47;24.10;;;1.00;99.90;;;;;;4973202;28;20465;-60
2024/01/06 01:47:26;;;;;;;36.60;24.50;;;1.00;99.90;;;;;;4974433;28;20173;-60
2024/01/06 01:49:54;;;;;;;39.67;24.50;;;1.00;99.90;;;;;;4973694;28;20649;-61
2024/01/06 01:52:20;;;;;;;34.30;23.83;;;1.00;99.90;;;;;;4964598;28;20435;-61
2024/01/06 01:54:47;;;;;;;41.80;26.20;;;1.00;99.90;;;;;;4976568;28;20461;-60
2024/01/06 01:57:15;;;;;;;40.63;22.17;;;1.00;99.90;;;;;;4977315;28;20409;-60
2024/01/06 01:59:41;;;;;;;38.30;21.67;;;1.00;99.90;;;;;;4972919;28;20792;-60
2024/01/06 02:02:08;;;;;;;36.73;22.83;;;1.00;99.90;;;;;;4974243;28;20417;-60
2024/01/06 02:04:34;;;;;;;34.67;22.30;;;1.00;99.90;;;;;;4973804;28;20506;-60
2024/01/06 02:06:59;;;;;;;32.93;19.80;;;1.00;99.90;;;;;;4978398;28;20433;-60
2024/01/06 02:09:28;;;;;;;35.73;21.43;;;1.10;99.90;;;;;;4976534;28;20178;-61
2024/01/06 02:11:56;;;;;;;36.73;22.10;;;1.00;99.90;;;;;;4977960;28;20193;-60
2024/01/06 02:14:21;;;;;;;40.77;20.80;;;1.00;99.90;;;;;;4976224;28;20775;-60
2024/01/06 02:16:47;;;;;;;37.60;23.13;;;1.00;99.90;;;;;;4973829;28;20417;-60
2024/01/06 02:19:15;;;;;;;34.60;21.10;;;1.00;99.90;;;;;;4964832;28;20218;-60
2024/01/06 02:21:43;;;;;;;42.37;22.23;;;1.00;99.90;;;;;;4975525;28;20192;-60
2024/01/06 02:24:09;;;;;;;34.50;20.60;;;1.00;99.90;;;;;;4972423;28;20449;-60
2024/01/06 02:26:35;;;;;;;45.60;22.67;;;1.00;99.90;;;;;;4971868;28;20477;-60
2024/01/06 02:29:01;;;;;;;38.13;21.00;;;0.90;99.90;;;;;;4976516;28;20846;-60
2024/01/06 02:31:27;;;;;;;32.70;20.87;;;0.90;99.90;;;;;;4973302;28;20232;-60
2024/01/06 02:33:53;;;;;;;36.40;22.63;;;1.00;99.90;;;;;;4958983;28;20406;-60
2024/01/06 02:36:19;;;;;;;31.93;19.90;;;1.00;99.90;;;;;;4972706;28;20445;-60
2024/01/06 02:38:44;;;;;;;39.13;20.77;;;0.90;99.90;;;;;;4971947;28;20553;-60
2024/01/06 02:41:10;;;;;;;41.03;23.83;;;1.00;99.90;;;;;;4973415;28;20192;-60
2024/01/06 02:43:35;;;;;;;34.20;17.97;;;1.00;99.90;;;;;;4972996;28;20178;-61
2024/01/06 02:46:01;;;;;;;37.20;22.67;;;1.00;99.90;;;;;;4973167;28;20723;-61
2024/01/06 02:48:26;;;;;;;34.17;21.97;;;1.00;99.90;;;;;;4971681;28;20257;-60
2024/01/06 02:50:52;;;;;;;33.40;20.50;;;1.00;99.90;;;;;;4974090;28;20177;-60
2024/01/06 02:53:18;;;;;;;35.53;23.63;;;1.00;99.90;;;;;;4972590;28;20215;-60
2024/01/06 02:55:43;;;;;;;39.27;23.03;;;0.90;99.90;;;;;;4972640;28;20190;-61
2024/01/06 02:58:09;;;;;;;36.23;20.53;;;1.00;99.90;;;;;;4973727;28;20209;-60
2024/01/06 03:00:34;;;;;;;32.43;20.67;;;1.00;99.90;;;;;;4972730;28;20189;-60
2024/01/06 03:03:00;;;;;;;44.90;20.40;;;1.00;99.90;;;;;;4972820;28;20201;-60
2024/01/06 03:05:26;;;;;;;42.10;20.80;;;1.00;99.90;;;;;;4973836;28;20217;-60
2024/01/06 03:07:51;;;;;;;44.13;22.17;;;1.00;99.90;;;;;;4976649;28;20184;-60
2024/01/06 03:10:17;;;;;;;34.60;19.80;;;1.00;99.90;;;;;;4972358;28;20519;-60
2024/01/06 03:12:42;;;;;;;35.93;19.60;;;1.00;99.90;;;;;;4975429;28;20176;-60
2024/01/06 03:15:08;;;;;;;36.80;21.50;;;1.00;99.90;;;;;;4975476;28;20194;-60
2024/01/06 03:17:34;;;;;;;39.97;22.30;;;1.00;99.90;;;;;;4974774;28;20181;-60
2024/01/06 03:19:59;;;;;;;34.47;21.90;;;1.00;99.90;;;;;;4967095;28;20819;-61
2024/01/06 03:22:25;;;;;;;31.40;19.03;;;1.00;99.90;;;;;;4972318;28;20181;-60
2024/01/06 03:24:51;;;;;;;38.10;23.80;;;1.00;99.90;;;;;;4974251;28;20280;-59
2024/01/06 03:27:16;;;;;;;33.93;21.30;;;1.00;99.90;;;;;;4976384;28;20296;-60
2024/01/06 03:29:42;;;;;;;33.00;20.93;;;0.90;99.90;;;;;;4975221;28;20177;-60
2024/01/06 03:32:08;;;;;;;40.83;22.33;;;0.90;99.90;;;;;;4972254;28;20170;-59
2024/01/06 03:34:33;;;;;;;39.07;20.50;;;0.90;99.90;;;;;;4972307;28;20711;-59
2024/01/06 03:36:59;;;;;;;44.57;22.90;;;0.90;99.90;;;;;;4972615;28;20184;-60
2024/01/06 03:39:24;;;;;;;39.13;22.47;;;0.90;99.90;;;;;;4963438;28;20262;-61
2024/01/06 03:41:50;;;;;;;39.20;23.33;;;0.90;99.90;;;;;;4974495;28;20178;-60
2024/01/06 03:44:15;;;;;;;40.43;23.93;;;0.90;99.90;;;;;;4975540;28;20197;-60
2024/01/06 03:46:41;;;;;;;37.87;21.40;;;0.90;99.90;;;;;;4974819;28;20656;-60
2024/01/06 03:49:06;;;;;;;36.93;21.40;;;1.00;99.90;;;;;;4972823;28;20202;-60
2024/01/06 03:51:32;;;;;;;39.87;21.30;;;1.00;99.90;;;;;;4972705;28;20197;-60
2024/01/06 03:53:58;;;;;;;32.27;21.13;;;1.00;99.90;;;;;;4973806;28;20252;-59
2024/01/06 03:56:23;;;;;;;42.10;23.20;;;1.00;99.90;;;;;;4971765;28;20619;-60
2024/01/06 03:58:49;;;;;;;36.80;20.70;;;1.00;99.90;;;;;;4972482;28;20192;-60
2024/01/06 04:01:15;;;;;;;44.27;20.80;;;0.90;99.90;;;;;;4975205;28;20786;-58
2024/01/06 04:03:40;;;;;;;41.87;21.23;;;0.90;99.90;;;;;;4970650;28;20173;-61
2024/01/06 04:06:06;;;;;;;32.93;22.10;;;0.90;99.90;;;;;;4963099;28;20202;-59
2024/01/06 04:08:32;;;;;;;36.63;23.17;;;0.90;99.90;;;;;;4973593;28;20178;-61
2024/01/06 04:10:57;;;;;;;38.10;21.67;;;0.90;99.90;;;;;;4973796;28;20456;-62
2024/01/06 04:13:24;;;;;;;29.50;21.40;;;0.90;99.90;;;;;;4974091;28;20165;-59
2024/01/06 04:15:50;;;;;;;44.17;22.80;;;0.90;99.90;;;;;;4970160;28;20196;-59
2024/01/06 04:18:16;;;;;;;42.27;22.43;;;1.00;99.90;;;;;;4977318;28;20417;-59
2024/01/06 04:20:41;;;;;;;33.70;20.00;;;0.90;99.90;;;;;;4977359;28;20474;-59
2024/01/06 04:23:07;;;;;;;34.90;21.47;;;0.90;99.90;;;;;;4971359;28;20518;-62
2024/01/06 04:25:33;;;;;;;37.00;22.40;;;0.90;99.90;;;;;;4976202;28;21066;-60
2024/01/06 04:27:58;;;;;;;41.53;21.40;;;0.90;99.90;;;;;;4972910;28;20178;-60
2024/01/06 04:30:25;;;;;;;41.10;19.63;;;0.90;99.90;;;;;;4971260;28;20288;-60
2024/01/06 04:32:51;;;;;;;38.50;22.10;;;0.90;99.90;;;;;;4971888;28;20234;-60
2024/01/06 04:35:17;;;;;;;45.70;25.30;;;1.00;99.90;;;;;;4980359;28;20540;-60
2024/01/06 04:37:42;;;;;;;42.53;23.00;;;1.00;99.90;;;;;;4972361;28;20181;-60
2024/01/06 04:40:08;;;;;;;38.97;23.07;;;1.00;99.90;;;;;;4971646;28;20667;-59
2024/01/06 04:42:34;;;;;;;39.60;22.33;;;1.00;99.90;;;;;;4974487;28;20182;-62
2024/01/06 04:44:59;;;;;;;38.43;22.33;;;1.00;99.90;;;;;;4976380;28;20885;-59
2024/01/06 04:47:26;;;;;;;44.40;24.23;;;1.00;99.90;;;;;;4979049;28;20178;-59
2024/01/06 04:49:52;;;;;;;40.00;22.57;;;1.00;99.90;;;;;;4964657;28;20229;-60
2024/01/06 04:52:17;;;;;;;38.80;23.03;;;1.00;99.90;;;;;;4971435;28;20500;-60
2024/01/06 04:54:43;;;;;;;28.23;17.83;;;1.00;99.90;;;;;;4971450;28;20209;-59
2024/01/06 04:57:09;;;;;;;39.33;23.90;;;1.00;99.90;;;;;;4959249;28;20173;-61
2024/01/06 04:59:35;;;;;;;45.97;24.97;;;0.90;99.90;;;;;;4973153;28;20439;-59
2024/01/06 05:02:01;;;;;;;34.50;21.40;;;1.00;99.90;;;;;;4975448;28;20185;-61
2024/01/06 05:04:26;;;;;;;40.13;25.37;;;0.90;99.90;;;;;;4980993;28;20609;-59
2024/01/06 05:06:52;;;;;;;45.20;23.80;;;0.90;99.90;;;;;;4979342;28;20425;-60
2024/01/06 05:09:18;;;;;;;39.40;20.03;;;0.90;99.90;;;;;;4975907;28;20250;-60
2024/01/06 05:11:44;;;;;;;41.97;23.70;;;0.90;99.90;;;;;;4976057;28;20180;-60
2024/01/06 05:14:10;;;;;;;46.77;23.77;;;0.90;99.90;;;;;;4968720;28;20461;-60
2024/01/06 05:16:35;;;;;;;44.13;22.10;;;0.90;99.90;;;;;;4974630;28;20455;-60
2024/01/06 05:19:01;;;;;;;40.27;24.23;;;0.90;99.90;;;;;;4974586;28;20405;-60
2024/01/06 05:21:27;;;;;;;31.30;22.13;;;0.90;99.90;;;;;;4977554;28;20181;-60
2024/01/06 05:23:52;;;;;;;40.87;25.00;;;0.90;99.90;;;;;;4976877;28;20181;-60
2024/01/06 05:26:18;;;;;;;37.33;20.23;;;0.90;99.90;;;;;;4974625;28;20205;-60
2024/01/06 05:28:44;;;;;;;49.17;23.73;;;0.90;99.90;;;;;;4976226;28;20170;-61
2024/01/06 05:31:09;;;;;;;47.50;24.13;;;0.80;99.90;;;;;;4979044;28;20200;-59
2024/01/06 05:33:35;;;;;;;45.87;25.13;;;0.80;99.90;;;;;;4973014;28;20180;-60
2024/01/06 05:36:00;;;;;;;46.80;23.97;;;0.90;99.90;;;;;;4974241;28;20193;-59
2024/01/06 05:38:26;;;;;;;46.77;27.53;;;0.80;99.90;;;;;;4975674;28;20208;-60
2024/01/06 05:40:51;;;;;;;44.33;24.77;;;0.80;99.90;;;;;;4978148;28;20170;-60
2024/01/06 05:43:17;;;;;;;53.97;26.27;;;0.80;99.90;;;;;;4977780;28;20189;-60
2024/01/06 05:45:42;;;;;;;40.50;23.50;;;0.80;99.90;;;;;;4974915;28;20205;-60
2024/01/06 05:48:10;;;;;;;44.83;26.47;;;0.80;99.90;;;;;;4974185;28;20170;-61
2024/01/06 05:50:36;;;;;;;39.53;23.97;;;0.80;99.90;;;;;;4961377;28;20201;-60
2024/01/06 05:53:01;;;;;;;55.20;26.23;;;0.80;99.90;;;;;;4974175;28;20471;-61
2024/01/06 05:55:28;;;;;;;42.70;25.60;;;0.90;99.90;;;;;;4976715;28;21031;-61
2024/01/06 05:57:53;;;;;;;50.97;23.50;;;0.80;99.90;;;;;;4967163;28;20185;-61
2024/01/06 06:00:19;;;;;;;45.50;22.53;;;0.80;99.90;;;;;;4972999;28;20556;-60
2024/01/06 06:02:45;;;;;;;49.43;27.50;;;0.70;99.90;;;;;;4973844;28;20224;-60
2024/01/06 06:05:10;;;;;;;42.33;23.27;;;0.70;99.90;;;;;;4975664;28;20206;-60
2024/01/06 06:07:38;;;;;;;50.43;25.13;;;0.70;99.90;;;;;;4967109;28;20189;-60
2024/01/06 06:10:06;;;;;;;42.60;23.67;;;0.70;99.90;;;;;;4975405;28;20436;-60
2024/01/06 06:12:32;;;;;;;46.17;22.63;;;0.70;99.90;;;;;;4974165;28;20414;-61
2024/01/06 06:14:58;;;;;;;39.37;21.57;;;0.70;99.90;;;;;;4975226;28;20817;-59
2024/01/06 06:17:23;;;;;;;42.53;22.07;;;0.70;99.90;;;;;;4975516;28;20252;-60
2024/01/06 06:19:49;;;;;;;42.80;22.73;;;0.60;99.90;;;;;;4975158;28;20253;-60
2024/01/06 06:22:14;;;;;;;42.63;21.93;;;0.70;99.90;;;;;;4972772;28;20189;-60
2024/01/06 06:24:40;;;;;;;49.57;26.10;;;0.70;99.90;;;;;;4975241;28;20213;-60
2024/01/06 06:27:05;;;;;;;54.70;24.10;;;0.60;99.90;;;;;;4978662;28;20680;-60
2024/01/06 06:29:31;;;;;;;44.27;22.37;;;0.60;99.90;;;;;;4977597;28;20223;-61
2024/01/06 06:31:57;;;;;;;43.93;22.77;;;0.60;99.90;;;;;;4975543;28;20611;-61
2024/01/06 06:34:22;;;;;;;41.43;22.57;;;0.70;99.90;;;;;;4973398;28;20178;-60
2024/01/06 06:36:48;;;;;;;43.97;23.57;;;0.70;99.90;;;;;;4973541;28;20193;-61
2024/01/06 06:39:14;;;;;;;50.00;26.43;;;0.60;99.90;;;;;;4964380;28;20480;-61
2024/01/06 06:41:39;;;;;;;54.03;25.47;;;0.60;99.90;;;;;;4972913;28;20235;-61
2024/01/06 06:44:05;;;;;;;48.20;25.80;;;0.60;99.90;;;;;;4978768;28;20277;-60
2024/01/06 06:46:31;;;;;;;42.53;22.30;;;0.60;99.90;;;;;;4972746;28;20688;-60
2024/01/06 06:48:57;;;;;;;46.03;21.43;;;0.60;99.90;;;;;;4973052;28;20174;-60
2024/01/06 06:51:25;;;;;;;49.27;22.00;;;0.50;99.90;;;;;;4974299;28;20493;-60
2024/01/06 06:53:50;;;;;;;45.77;24.73;;;0.50;99.90;;;;;;4973769;28;20178;-61
2024/01/06 06:56:17;;;;;;;45.80;21.63;;;0.50;99.90;;;;;;4972561;28;20535;-60
2024/01/06 06:58:42;;;;;;;47.30;22.37;;;0.50;99.90;;;;;;4975042;28;20680;-60
2024/01/06 07:01:08;;;;;;;39.43;21.23;;;0.50;99.90;;;;;;4976487;28;20429;-61
2024/01/06 07:03:34;;;;;;;34.20;17.73;;;0.50;99.90;;;;;;4975059;28;20185;-60
2024/01/06 07:05:59;;;;;;;40.37;20.03;;;0.40;99.90;;;;;;4971986;28;20457;-60
2024/01/06 07:08:25;;;;;;;57.00;26.00;;;0.40;99.90;;;;;;4976859;28;20213;-61
2024/01/06 07:10:51;;;;;;;47.30;25.97;;;0.40;99.90;;;;;;4970912;28;20181;-61
2024/01/06 07:26:59;;;;;;;51.80;21.43;;;0.30;99.90;;;;;;3361542;26;20488;-60
2024/01/06 07:29:25;;;;;;;42.30;23.40;;;0.20;99.90;;;;;;5041271;28;20417;-58
2024/01/06 07:31:51;;;;;;;54.53;25.40;;;0.30;99.90;;;;;;5036927;28;20639;-60
2024/01/06 07:34:16;;;;;;;50.80;23.60;;;0.30;99.90;;;;;;5035399;28;20226;-60
2024/01/06 07:36:42;;;;;;;41.00;23.90;;;0.20;99.90;;;;;;5030998;28;20278;-60
2024/01/06 07:39:09;;;;;;;45.13;25.20;;;0.20;99.90;;;;;;5034132;28;20190;-61
2024/01/06 07:41:34;;;;;;;45.63;25.60;;;0.20;99.90;;;;;;5031995;28;20168;-60
2024/01/06 07:44:02;;;;;;;44.60;20.37;;;0.20;99.90;;;;;;5031903;28;20414;-60
2024/01/06 07:46:28;;;;;;;36.10;22.63;;;0.20;99.90;;;;;;5034610;22;20299;-64
2024/01/06 07:48:54;;;;;;;55.00;25.70;;;0.20;99.90;;;;;;5010767;28;20841;-63
2024/01/06 07:51:20;;;;;;;49.37;24.97;;;0.20;99.90;;;;;;5011850;28;20414;-63
2024/01/06 07:53:45;;;;;;;47.63;25.20;;;0.30;99.90;;;;;;5009823;28;20211;-63
2024/01/06 07:56:11;;;;;;;61.03;28.70;;;0.20;99.90;;;;;;5009746;28;20215;-64
2024/01/06 07:58:36;;;;;;;54.10;27.37;;;0.20;99.90;;;;;;5008722;28;20191;-63
2024/01/06 08:01:02;;;;;;;35.43;20.67;;;0.20;99.90;;;;;;5008969;28;20623;-61
2024/01/06 08:03:28;;;;;;;45.97;25.10;;;0.10;99.90;;;;;;5009687;28;20176;-62
2024/01/06 08:05:54;;;;;;;46.83;26.20;;;0.10;99.90;;;;;;5009142;28;20211;-61
2024/01/06 08:08:19;;;;;;;44.13;23.37;;;0.10;99.90;;;;;;5008782;28;20246;-62
2024/01/06 08:10:45;;;;;;;54.20;25.77;;;0.10;99.90;;;;;;5009488;28;20419;-63
2024/01/06 08:13:11;;;;;;;49.37;23.97;;;0.10;99.90;;;;;;5009319;28;20255;-63
2024/01/06 08:15:37;;;;;;;44.67;27.10;;;0.10;99.90;;;;;;5013855;28;20577;-63
2024/01/06 08:18:03;;;;;;;44.17;23.10;;;0.10;99.90;;;;;;5013548;28;20704;-62
2024/01/06 08:20:29;;;;;;;61.57;27.50;;;0.10;99.90;;;;;;5018715;28;20505;-63
2024/01/06 08:22:54;;;;;;;53.90;26.07;;;0.10;99.90;;;;;;5019098;28;20422;-62
2024/01/06 08:25:20;;;;;;;42.27;23.63;;;0.10;99.90;;;;;;5021013;28;20288;-63
2024/01/06 08:27:46;;;;;;;48.60;23.07;;;0.20;99.90;;;;;;5023980;28;20172;-64
2024/01/06 08:30:12;;;;;;;40.40;24.80;;;0.10;99.90;;;;;;5019788;28;20199;-64
2024/01/06 08:32:38;;;;;;;43.03;19.27;;;0.10;99.90;;;;;;5023854;28;20176;-64
2024/01/06 08:35:04;;;;;;;30.70;18.27;;;0.10;99.90;;;;;;5025586;28;20488;-62
2024/01/06 08:37:30;;;;;;;49.77;26.50;;;0.10;99.90;;;;;;5025786;28;20423;-63
2024/01/06 08:39:55;;;;;;;52.30;22.60;;;0.10;99.90;;;;;;5014752;28;20455;-63
2024/01/06 08:42:21;;;;;;;51.07;24.93;;;0.10;99.90;;;;;;5021642;28;20443;-62
2024/01/06 08:44:47;;;;;;;44.23;23.03;;;0.20;99.90;;;;;;5023248;28;20265;-62
2024/01/06 08:47:13;;;;;;;50.17;26.13;;;0.20;99.90;;;;;;5013291;28;20454;-63
2024/01/06 08:49:38;;;;;;;39.77;24.93;;;0.30;99.90;;;;;;5027152;28;20602;-63
2024/01/06 08:52:04;;;;;;;47.30;21.97;;;0.10;99.90;;;;;;5025499;28;20414;-62
2024/01/06 08:54:31;;;;;;;47.30;25.63;;;0.10;99.90;;;;;;5014450;28;20651;-63
2024/01/06 08:56:56;;;;;;;39.53;22.93;;;0.20;99.90;;;;;;5017117;28;20501;-63
2024/01/06 08:59:22;;;;;;;42.43;23.90;;;0.10;99.90;;;;;;5020840;28;20418;-63
2024/01/06 09:01:48;;;;;;;39.30;23.27;;;0.10;99.90;;;;;;5024991;28;20176;-62
2024/01/06 09:04:14;;;;;;;58.93;27.67;;;0.10;99.90;;;;;;5023288;28;20173;-61
2024/01/06 09:06:41;;;;;;;47.97;26.43;;;0.20;99.90;;;;;;5028804;28;20733;-60
2024/01/06 09:09:08;;;;;;;54.87;25.93;;;0.00;99.90;;;;;;5021639;28;20439;-63
2024/01/06 09:11:33;;;;;;;43.30;23.63;;;0.10;99.90;;;;;;5016556;28;20419;-62
2024/01/06 09:13:59;;;;;;;55.70;28.63;;;0.10;99.90;;;;;;5020816;28;20491;-64
2024/01/06 09:16:24;;;;;;;49.10;24.57;;;0.10;99.90;;;;;;5015963;28;20196;-62
2024/01/06 09:18:50;;;;;;;41.90;22.07;;;0.10;99.90;;;;;;5014555;28;20641;-64
2024/01/06 09:21:17;;;;;;;47.10;23.63;;;0.10;99.90;;;;;;5023194;28;20186;-64
2024/01/06 09:23:43;;;;;;;43.53;23.67;;;0.10;99.90;;;;;;5015980;28;20176;-64
2024/01/06 09:26:08;;;;;;;48.37;26.47;;;0.10;99.90;;;;;;5020479;28;20474;-62
2024/01/06 09:28:34;;;;;;;50.53;26.30;;;0.00;99.90;;;;;;5018349;28;20717;-62
2024/01/06 09:30:59;;;;;;;50.73;23.60;;;0.10;99.90;;;;;;5015310;28;20244;-63
2024/01/06 09:33:25;;;;;;;44.93;23.37;;;0.20;99.90;;;;;;5027915;28;20208;-63
2024/01/06 09:35:51;;;;;;;42.47;21.77;;;0.20;99.90;;;;;;5021688;28;20295;-61
2024/01/06 09:38:17;;;;;;;45.10;24.67;;;0.20;99.90;;;;;;5027965;28;20191;-63
2024/01/06 09:40:44;;;;;;;54.87;24.93;;;0.20;99.90;;;;;;5029487;28;21903;-64
2024/01/06 09:43:10;;;;;;;35.53;20.30;;;0.20;99.90;;;;;;5013875;28;20506;-62
2024/01/06 09:45:36;;;;;;;59.30;26.10;;;0.20;99.90;;;;;;5024832;28;20494;-65
2024/01/06 09:48:13;;;;;;;51.33;27.57;;;0.20;99.90;;;;;;5023529;28;20544;-67
2024/01/06 09:50:41;;;;;;;48.27;24.07;;;0.20;99.90;;;;;;5022548;28;20175;-65
2024/01/06 09:53:10;;;;;;;43.83;24.97;;;0.10;99.90;;;;;;5022766;28;20412;-66
2024/01/06 09:55:36;;;;;;;41.03;24.67;;;0.10;99.90;;;;;;5025394;28;20779;-63
2024/01/06 09:58:02;;;;;;;42.13;22.30;;;0.20;99.90;;;;;;5024519;28;20410;-62
2024/01/06 10:00:28;;;;;;;49.27;25.53;;;0.10;99.90;;;;;;5013912;28;20510;-64
2024/01/06 10:02:55;;;;;;;45.43;26.30;;;0.20;99.90;;;;;;5013965;28;20629;-62
2024/01/06 10:05:21;;;;;;;54.30;22.20;;;0.20;99.90;;;;;;5024976;28;20458;-63
2024/01/06 10:07:47;;;;;;;46.43;22.13;;;0.10;99.90;;;;;;5025228;28;20411;-62
2024/01/06 10:10:14;;;;;;;43.03;23.63;;;0.10;99.90;;;;;;5022629;28;20576;-63
2024/01/06 10:12:41;;;;;;;44.97;25.40;;;0.20;99.90;;;;;;5025116;28;20763;-63
2024/01/06 10:15:10;;;;;;;48.33;27.93;;;0.10;99.90;;;;;;5022189;28;20438;-63
2024/01/06 10:17:41;;;;;;;42.53;21.33;;;0.10;99.90;;;;;;5016512;28;20420;-63
2024/01/06 10:20:11;;;;;;;32.77;20.37;;;0.10;99.90;;;;;;5024081;28;20519;-63
2024/01/06 10:22:39;;;;;;;37.10;24.53;;;0.10;99.90;;;;;;5021537;28;20482;-64
2024/01/06 10:25:07;;;;;;;37.40;20.27;;;0.10;99.90;;;;;;5016446;28;21123;-64
2024/01/06 10:27:37;;;;;;;41.93;21.57;;;0.00;99.90;;;;;;5015090;28;20416;-63
2024/01/06 10:30:03;;;;;;;31.63;20.63;;;0.10;99.90;;;;;;5026868;28;20437;-64
2024/01/06 10:32:31;;;;;;;36.77;21.33;;;0.10;99.90;;;;;;5015605;28;20411;-64
2024/01/06 10:34:57;;;;;;;46.97;24.10;;;0.10;99.90;;;;;;5016764;28;20418;-63
2024/01/06 10:37:24;;;;;;;36.10;22.77;;;0.20;99.90;;;;;;5012609;28;20423;-63
2024/01/06 10:40:08;;;;;;;38.10;24.90;;;0.20;99.90;;;;;;5022702;28;20179;-63
2024/01/06 10:42:36;;;;;;;43.03;21.30;;;0.20;99.90;;;;;;5025233;28;20917;-64
2024/01/06 10:45:02;;;;;;;48.17;25.40;;;0.10;99.90;;;;;;5028521;28;20454;-64
2024/01/06 10:47:31;;;;;;;39.90;26.07;;;0.10;99.90;;;;;;5026207;28;20432;-63
2024/01/06 10:49:59;;;;;;;31.07;17.03;;;0.10;99.90;;;;;;5021610;28;20782;-63
2024/01/06 10:52:27;;;;;;;42.97;23.80;;;0.00;99.90;;;;;;5013812;28;20497;-63
2024/01/06 10:54:54;;;;;;;36.70;22.50;;;0.10;99.90;;;;;;5018268;28;20469;-61
2024/01/06 10:57:21;;;;;;;40.03;21.43;;;0.10;99.90;;;;;;5011407;28;20753;-63
2024/01/06 10:59:50;;;;;;;38.33;25.37;;;0.20;99.90;;;;;;5011693;28;20477;-64
2024/01/06 11:02:16;;;;;;;30.10;19.03;;;0.20;99.90;;;;;;5011120;28;20419;-65
2024/01/06 11:04:45;;;;;;;40.27;22.17;;;0.20;99.90;;;;;;5011048;28;20582;-63
2024/01/06 11:07:11;;;;;;;35.50;19.97;;;0.10;99.90;;;;;;5008674;28;20419;-64
2024/01/06 11:09:41;;;;;;;38.87;23.33;;;0.10;99.90;;;;;;5010753;28;20450;-65
2024/01/06 11:12:07;;;;;;;36.60;22.23;;;0.10;99.90;;;;;;5010240;28;20419;-63
2024/01/06 11:14:37;;;;;;;37.53;21.30;;;0.10;99.90;;;;;;5009674;28;20882;-64
2024/01/06 11:17:03;;;;;;;33.73;19.87;;;0.10;99.90;;;;;;5010016;28;20431;-63
2024/01/06 11:19:35;;;;;;;42.60;22.90;;;0.10;99.90;;;;;;5010472;28;20442;-60
2024/01/06 11:22:31;;;;;;;38.97;23.13;;;0.10;99.90;;;;;;5014364;28;20429;-62
2024/01/06 11:25:08;;;;;;;39.00;24.43;;;0.10;99.90;;;;;;5002794;28;20463;-63
2024/01/06 11:27:36;;;;;;;27.40;16.40;;;0.10;99.90;;;;;;5010252;28;20462;-63
2024/01/06 11:30:05;;;;;;;34.37;19.47;;;0.10;99.90;;;;;;5013894;28;20786;-66
2024/01/06 11:32:40;;;;;;;33.40;20.73;;;0.00;99.90;;;;;;5018585;28;20438;-63
2024/01/06 11:35:09;;;;;;;36.87;21.80;;;0.00;99.90;;;;;;5010927;28;20531;-63
2024/01/06 11:37:52;;;;;;;39.50;21.00;;;0.00;99.90;;;;;;5009499;28;20937;-63
2024/01/06 11:40:20;;;;;;;33.63;20.73;;;0.00;99.90;;;;;;5015772;28;20889;-64
2024/01/06 11:42:47;;;;;;;34.43;19.77;;;0.00;99.90;;;;;;5010117;28;20429;-63
2024/01/06 11:45:14;;;;;;;40.50;24.83;;;0.00;99.90;;;;;;5007742;28;20549;-64
2024/01/06 11:47:41;;;;;;;36.77;22.03;;;0.10;99.90;;;;;;5011935;28;20432;-65
2024/01/06 11:50:07;;;;;;;34.93;20.57;;;0.20;99.90;;;;;;5024314;28;20440;-64
2024/01/06 11:52:33;;;;;;;35.17;21.57;;;0.10;99.90;;;;;;5012807;28;20419;-63
2024/01/06 11:54:59;;;;;;;36.50;20.43;;;0.00;99.90;;;;;;5010512;28;20512;-64
2024/01/06 11:57:29;;;;;;;33.60;20.50;;;0.10;99.90;;;;;;5018613;28;20415;-65
2024/01/06 11:59:54;;;;;;;55.23;26.33;;;0.10;99.90;;;;;;5025289;28;20449;-66
2024/01/06 12:02:24;;;;;;;36.77;21.17;;;0.10;99.90;;;;;;5020266;28;20921;-66
2024/01/06 12:04:53;;;;;;;37.50;22.03;;;0.10;99.90;;;;;;5027679;28;20207;-68
2024/01/06 12:07:22;;;;;;;36.13;23.07;;;0.10;99.90;;;;;;5019431;28;20422;-66
2024/01/06 12:09:48;;;;;;;36.03;21.10;;;0.20;99.90;;;;;;5030800;28;20419;-63
2024/01/06 12:12:17;;;;;;;38.23;22.50;;;0.10;99.90;;;;;;5025864;28;20858;-64
2024/01/06 12:14:43;;;;;;;28.70;17.40;;;0.30;99.90;;;;;;5023811;28;20588;-64
2024/01/06 12:17:09;;;;;;;40.33;23.90;;;0.00;99.90;;;;;;5029424;28;20509;-65
2024/01/06 12:19:35;;;;;;;34.03;21.33;;;-0.10;99.90;;;;;;5023154;28;20271;-64
2024/01/06 12:22:02;;;;;;;42.00;22.10;;;0.00;99.90;;;;;;5030386;28;20434;-65
2024/01/06 12:24:28;;;;;;;35.33;20.17;;;0.00;99.90;;;;;;5023746;28;20267;-64
2024/01/06 12:26:57;;;;;;;38.30;23.10;;;0.00;99.90;;;;;;5029120;28;20937;-63
2024/01/06 12:29:27;;;;;;;34.63;21.10;;;0.00;99.90;;;;;;5024507;28;20886;-64
2024/01/06 12:31:53;;;;;;;39.27;21.10;;;0.00;99.90;;;;;;5032970;28;20418;-63
2024/01/06 12:34:20;;;;;;;39.60;22.93;;;0.00;99.90;;;;;;5027818;28;20469;-66
2024/01/06 12:36:47;;;;;;;38.93;21.33;;;0.10;99.90;;;;;;5024189;28;20211;-64
2024/01/06 12:39:13;;;;;;;32.40;21.07;;;0.20;99.90;;;;;;5015217;28;20422;-61
2024/01/06 12:41:43;;;;;;;36.83;21.70;;;0.10;99.90;;;;;;5019675;28;20865;-63
2024/01/06 12:44:09;;;;;;;40.87;20.17;;;0.00;99.90;;;;;;5019502;28;20465;-62